Weather at Woodruff Lake Airport

Public forecast

Using degrees Fahrenheit for public forecast. Weather courtesy of forecast.io.

Closest aviation weather report (METAR) to Woodruff Lake Airport

Closest report is Mount Pleasant Municipal Airport, 11.2 nm (20.8 km) ENE. Retrieved 2020/09/21 01:35 UTC (12 minutes ago):

KMOP 210135Z AUTO 11003KT 10SM CLR 12/07 A3046 RMK AO2 T01150071

Closest aviation forecast (TAF) to Woodruff Lake Airport

Closest forecast is MBS International Airport, 39.2 nm (72.5 km) E. Retrieved 2020-09-21 00:22 UTC (1 hour ago):

TAF KMBS 202320Z 2100/2124 15005KT P6SM SKC FM210300 15003KT P6SM SCT250 FM211400 19007KT P6SM SKC